Station: NULLARBOR

  Atmospheric Gas Attenuation - ITU Rec 676-11   --------------- db/100km ---------------
Date Time Temp RH % AH g/m3 Dew Point Wind Direction Speed kph Gust kph Barometer mB Rainfall Since 9am 24GHz 47GHz 76GHz 122GHz 134GHz 241GHz
16 19:00 18.9 51 8.26 8.6 37 52 1021.1 0 18.6 24.2 36.4 95.3 88.6 304.8
16 18:50 19.1 52 8.52 9 35 39 1020.8 0 19.2 24.6 37.3 97.7 91.6 315.1
16 18:40 19.1 51 8.36 8.7 39 46 1020.7 0 18.8 24.3 36.7 96.1 89.6 308.2
16 18:30 19.4 53 8.84 9.6 39 50 1020.8 0 19.8 25.0 38.3 100.5 95.2 327.8
16 18:20 18.9 55 8.91 9.7 41 50 1020.7 0 20.0 25.2 38.8 101.8 96.6 332.9
16 18:10 18.6 56 8.91 9.7 43 50 1020.7 0 20.0 25.3 39.0 102.2 97.0 334.1
16 18:00 20.4 56 9.91 11.3 35 46 1020.9 0 22.0 26.3 41.9 110.1 107.3 370.4
16 17:50 18.9 52 8.42 8.8 39 44 1020.8 0 19.0 24.5 37.0 96.9 90.6 311.6
16 17:40 19.5 53 8.89 9.7 39 46 1020.8 0 19.9 25.0 38.5 100.9 95.7 329.5
16 17:30 19.6 51 8.61 9.2 37 46 1020.9 0 19.3 24.6 37.4 98.0 92.1 317.1
16 17:20 19.5 51 8.56 9.1 39 46 1020.8 0 19.2 24.5 37.2 97.6 91.6 315.3
16 17:10 19.7 48 8.15 8.4 39 44 1020.9 0 18.4 23.8 35.6 93.3 86.4 297.1
16 17:00 19.7 48 8.15 8.4 37 48 1021 0 18.4 23.9 35.6 93.3 86.4 297.1
16 16:50 20.3 44 7.74 7.7 44 48 1021.1 0 17.5 23.1 33.9 88.7 80.9 277.8
16 16:40 20.2 48 8.39 8.8 33 41 1021.2 0 18.8 24.1 36.3 95.1 88.8 305.4
16 16:30 20.6 49 8.77 9.5 35 44 1021.3 0 19.6 24.5 37.5 98.4 92.9 320.0
16 16:20 20.6 50 8.95 9.8 32 39 1021.2 0 20.0 24.8 38.2 100.1 95.1 327.7
16 16:10 19.9 51 8.76 9.5 37 43 1021.4 0 19.6 24.7 37.8 99.1 93.6 322.4
16 16:00 20.2 51 8.92 9.7 35 44 1021.6 0 19.9 24.9 38.3 100.4 95.2 328.2
16 15:50 19.6 51 8.61 9.2 35 43 1021.5 0 19.3 24.6 37.4 98.0 92.1 317.2
16 15:40 19.9 51 8.76 9.5 41 44 1021.5 0 19.6 24.7 37.8 99.1 93.6 322.5
16 15:30 20.3 49 8.62 9.2 35 46 1021.6 0 19.3 24.4 37.1 97.3 91.5 314.9
16 15:20 20.1 49 8.52 9.1 35 39 1021.6 0 19.1 24.3 36.8 96.5 90.5 311.4
16 15:10 19.8 47 8.03 8.2 39 44 1021.8 0 18.1 23.7 35.2 92.1 84.9 291.9
16 15:00 20.6 46 8.23 8.6 33 46 1021.9 0 18.5 23.8 35.6 93.1 86.4 297.4
16 14:50 20.4 46 8.14 8.4 32 35 1021.9 0 18.3 23.7 35.3 92.5 85.6 294.3
16 14:40 19.8 48 8.2 8.5 30 33 1021.9 0 18.5 23.9 35.8 93.8 87.0 299.1
16 14:30 18.9 48 7.78 7.7 28 43 1022.1 0 17.6 23.6 34.7 90.7 82.9 284.6
16 14:20 19.1 48 7.87 7.8 28 33 1022.1 0 17.8 23.6 34.9 91.4 83.7 287.7
16 14:10 20 48 8.29 8.7 32 37 1022 0 18.6 24.0 36.1 94.4 87.8 302.1
16 14:00 19.2 50 8.24 8.5 30 43 1022.1 0 18.6 24.2 36.2 94.9 88.1 303.0
16 13:50 19.2 51 8.41 8.8 32 39 1022 0 18.9 24.4 36.9 96.6 90.2 310.3
16 13:40 19.3 51 8.46 8.9 32 37 1022 0 19.0 24.5 37.0 96.9 90.7 312.1
16 13:30 21.3 50 9.32 10.5 30 41 1022.2 0 20.7 25.2 39.3 103.0 98.9 341.0
16 13:20 20.1 49 8.52 9.1 26 30 1022.2 0 19.1 24.3 36.9 96.6 90.5 311.6
16 13:10 18.9 53 8.59 9.1 26 30 1022.3 0 19.3 24.8 37.7 98.8 92.8 319.3
16 13:00 18.6 53 8.43 8.8 28 41 1022.3 0 19.0 24.6 37.2 97.5 91.1 313.6
16 12:50 19 51 8.31 8.6 28 30 1022.2 0 18.7 24.3 36.6 95.8 89.2 306.8
16 12:40 19.4 46 7.67 7.5 26 30 1022.1 0 17.4 23.3 34.1 89.1 81.0 278.3
16 12:30 18.4 48 7.55 7.2 26 37 1022.2 0 17.1 23.3 34.1 89.0 80.6 276.7
16 12:20 18.4 47 7.39 6.9 33 37 1022.2 0 16.8 23.1 33.5 87.5 78.7 270.0
16 12:10 18.8 48 7.73 7.6 26 32 1022.3 0 17.5 23.5 34.5 90.4 82.4 282.9
16 12:00 18.5 50 7.91 7.9 32 41 1022.5 0 17.9 23.9 35.3 92.5 84.9 291.7
16 11:50 18.8 50 8.05 8.2 32 37 1022.4 0 18.2 24.0 35.7 93.5 86.3 296.5
16 11:40 20 49 8.47 9 30 35 1022.4 0 19.0 24.3 36.7 96.2 90.0 309.9
16 11:30 19.4 48 8.01 8.1 33 43 1022.5 0 18.1 23.8 35.3 92.4 85.1 292.6
16 11:20 19.9 46 7.9 7.9 30 33 1022.4 0 17.8 23.5 34.7 90.8 83.3 286.2
16 11:10 18.8 49 7.89 7.9 28 32 1022.3 0 17.8 23.7 35.1 91.9 84.3 289.7
16 11:00 18.4 50 7.86 7.8 33 43 1022.6 0 17.8 23.8 35.2 92.1 84.4 289.9
16 10:50 18.7 53 8.48 8.9 30 35 1022.4 0 19.1 24.7 37.4 97.9 91.6 315.4
16 10:40 18.6 51 8.12 8.3 28 33 1022.6 0 18.3 24.2 36.1 94.4 87.3 300.3
16 10:30 18.8 49 7.89 7.9 28 37 1022.6 0 17.8 23.8 35.1 91.9 84.3 289.7
16 10:20 19.1 48 7.87 7.8 28 35 1022.6 0 17.8 23.7 34.9 91.4 83.8 287.8
16 10:10 18.5 47 7.44 7 30 33 1022.8 0 16.9 23.2 33.6 87.9 79.2 271.9
16 10:00 18.4 48 7.55 7.2 30 39 1022.9 0 17.1 23.4 34.1 89.1 80.7 276.8
16 09:50 18 52 7.99 8 28 35 1022.8 0 18.1 24.1 35.9 93.9 86.4 297.0
16 09:40 18.4 52 8.18 8.4 35 39 1022.7 0 18.5 24.3 36.4 95.3 88.3 303.6
16 09:30 17.9 53 8.09 8.2 28 35 1022.9 0 18.3 24.3 36.3 95.0 87.8 301.7
16 09:20 17.9 53 8.09 8.2 30 35 1022.8 0 18.3 24.3 36.3 95.0 87.8 301.7
16 09:10 17.4 55 8.15 8.3 28 30 1022.8 0 18.5 24.5 36.7 96.2 89.1 306.2
16 09:00 17.1 55 8.01 8 24 30 1023 0 18.2 24.4 36.4 95.2 87.7 301.3
16 08:50 17 55 7.96 7.9 26 30 1022.8 0 18.1 24.3 36.2 94.8 87.2 299.4
16 08:40 17.9 52 7.94 7.9 24 30 1022.6 0 18.0 24.1 35.7 93.5 85.9 295.1
16 08:30 17 54 7.81 7.6 26 33 1022.6 0 17.8 24.1 35.6 93.2 85.3 292.8
16 08:20 16.7 55 7.82 7.6 22 28 1022.5 0 17.8 24.2 35.8 93.7 85.7 294.3
16 08:10 16.6 56 7.91 7.8 28 32 1022.2 0 18.0 24.4 36.2 94.7 86.9 298.6
16 08:00 16.5 57 8 8 28 35 1022.3 0 18.2 24.5 36.6 95.7 88.2 302.9
16 07:50 16.6 56 7.91 7.8 28 32 1022 0 18.0 24.3 36.2 94.6 86.9 298.5
16 07:40 16.5 59 8.28 8.5 30 33 1021.7 0 18.8 24.9 37.6 98.5 91.6 315.1
16 07:30 16.3 60 8.32 8.5 24 32 1021.8 0 18.9 25.1 37.9 99.2 92.4 317.7
16 07:20 16.3 59 8.19 8.3 24 30 1021.8 0 18.6 24.9 37.4 97.8 90.8 311.9
16 07:10 16.2 59 8.14 8.2 24 30 1021.6 0 18.5 24.8 37.2 97.4 90.2 310.1
16 07:00 16.1 61 8.36 8.6 24 35 1021.6 0 19.0 25.2 38.1 99.8 93.1 320.2
16 06:50 16.1 62 8.5 8.8 24 28 1021.4 0 19.3 25.4 38.6 101.2 94.9 326.5
16 06:40 16.1 61 8.36 8.6 24 28 1021.6 0 19.0 25.2 38.1 99.8 93.1 320.2
16 06:30 16.1 59 8.09 8.1 26 33 1021.4 0 18.4 24.7 37.0 97.0 89.7 308.2
16 06:20 16.1 60 8.22 8.3 22 26 1021.3 0 18.7 24.9 37.5 98.3 91.3 313.9
16 06:10 16.2 59 8.14 8.2 28 33 1021 0 18.5 24.8 37.2 97.4 90.2 309.9
16 06:00 16.2 60 8.27 8.4 26 33 1021.3 0 18.8 25.0 37.7 98.7 91.8 315.8
16 05:50 16.2 61 8.41 8.7 24 28 1021.1 0 19.1 25.2 38.2 100.2 93.6 321.9
16 05:40 16.1 62 8.5 8.8 22 26 1020.9 0 19.3 25.4 38.6 101.2 94.9 326.3
16 05:30 16 61 8.31 8.5 24 30 1020.8 0 18.9 25.1 37.9 99.3 92.5 318.2
16 05:20 16 61 8.31 8.5 24 26 1020.6 0 18.9 25.1 37.9 99.3 92.5 318.1
16 05:10 16 59 8.04 8 26 32 1020.5 0 18.3 24.7 36.9 96.5 89.1 306.1
16 04:50 16 61 8.31 8.5 22 24 1020.6 0 18.9 25.1 37.9 99.3 92.5 318.1
16 04:40 16.1 61 8.36 8.6 28 33 1020.5 0 19.0 25.1 38.0 99.7 93.0 320.0
16 04:30 16.1 61 8.36 8.6 30 37 1020.7 0 19.0 25.1 38.1 99.7 93.1 320.0
16 04:20 16.2 62 8.55 8.9 26 30 1020.6 0 19.4 25.4 38.7 101.6 95.4 328.1
16 04:10 16.2 62 8.55 8.9 24 30 1020.9 0 19.4 25.4 38.8 101.6 95.4 328.2
16 04:00 16.2 63 8.69 9.2 24 35 1021.1 0 19.7 25.6 39.3 103.1 97.2 334.5
16 03:50 16.2 63 8.69 9.2 26 28 1021 0 19.7 25.6 39.3 103.1 97.2 334.5
16 03:40 16.2 63 8.69 9.2 24 30 1021.1 0 19.7 25.6 39.3 103.1 97.2 334.5
16 03:30 16.3 61 8.46 8.8 24 32 1021.3 0 19.2 25.3 38.4 100.6 94.1 323.8
16 03:20 16.3 61 8.46 8.8 26 28 1020.9 0 19.2 25.2 38.4 100.5 94.1 323.7
16 03:10 16.3 62 8.6 9 28 32 1020.9 0 19.5 25.5 38.9 102.0 95.9 330.0
16 03:00 16.4 62 8.65 9.1 28 35 1021.2 0 19.6 25.5 39.1 102.4 96.4 331.9
16 02:50 16.4 64 8.93 9.6 30 32 1021.1 0 20.2 26.0 40.2 105.3 100.0 344.5
16 02:40 16.3 63 8.74 9.3 19 22 1021.4 0 19.8 25.7 39.5 103.5 97.7 336.4
16 02:30 16.2 62 8.55 8.9 20 28 1021.4 0 19.4 25.4 38.8 101.6 95.4 328.3
16 02:20 16.3 61 8.46 8.8 22 24 1021.2 0 19.2 25.3 38.4 100.6 94.1 323.8

Last Refresh: 16-Jan-2021 19:13:04

Most of the information presented on this site is sourced from the Bureau of Meteorology.  Copyright in all material sourced from the Bureau of Meteorology resides with the Commonwealth of Australia.